sensor_id;sensor_type;location;lat;lon;timestamp;temperature;humidity
770;DHT22;368;48.698;9.116;2022-07-06T00:01:53;17.50;89.80
770;DHT22;368;48.698;9.116;2022-07-06T00:04:20;17.40;90.60
770;DHT22;368;48.698;9.116;2022-07-06T00:06:47;17.10;91.40
770;DHT22;368;48.698;9.116;2022-07-06T00:09:14;17.00;91.70
770;DHT22;368;48.698;9.116;2022-07-06T00:11:41;17.20;91.10
770;DHT22;368;48.698;9.116;2022-07-06T00:14:08;16.90;92.00
770;DHT22;368;48.698;9.116;2022-07-06T00:16:34;16.90;91.80
770;DHT22;368;48.698;9.116;2022-07-06T00:19:03;16.80;91.90
770;DHT22;368;48.698;9.116;2022-07-06T00:21:29;16.80;91.90
770;DHT22;368;48.698;9.116;2022-07-06T00:23:56;16.80;91.80
770;DHT22;368;48.698;9.116;2022-07-06T00:26:23;16.80;91.80
770;DHT22;368;48.698;9.116;2022-07-06T00:28:50;16.80;92.70
770;DHT22;368;48.698;9.116;2022-07-06T00:31:17;16.50;93.50
770;DHT22;368;48.698;9.116;2022-07-06T00:33:43;16.30;93.90
770;DHT22;368;48.698;9.116;2022-07-06T00:36:11;16.10;94.50
770;DHT22;368;48.698;9.116;2022-07-06T00:38:38;15.80;95.00
770;DHT22;368;48.698;9.116;2022-07-06T00:41:05;15.90;95.00
770;DHT22;368;48.698;9.116;2022-07-06T00:43:46;15.80;95.30
770;DHT22;368;48.698;9.116;2022-07-06T00:46:13;15.60;95.60
770;DHT22;368;48.698;9.116;2022-07-06T00:48:40;15.60;96.10
770;DHT22;368;48.698;9.116;2022-07-06T00:51:07;15.10;96.20
770;DHT22;368;48.698;9.116;2022-07-06T00:53:35;15.20;97.10
770;DHT22;368;48.698;9.116;2022-07-06T00:56:02;15.40;97.30
770;DHT22;368;48.698;9.116;2022-07-06T00:58:29;15.30;97.70
770;DHT22;368;48.698;9.116;2022-07-06T01:00:56;15.30;97.90
770;DHT22;368;48.698;9.116;2022-07-06T01:03:23;15.10;98.10
770;DHT22;368;48.698;9.116;2022-07-06T01:05:50;15.20;98.30
770;DHT22;368;48.698;9.116;2022-07-06T01:08:17;15.10;98.40
770;DHT22;368;48.698;9.116;2022-07-06T01:10:45;14.90;98.60
770;DHT22;368;48.698;9.116;2022-07-06T01:13:12;14.60;98.90
770;DHT22;368;48.698;9.116;2022-07-06T01:15:39;15.00;99.40
770;DHT22;368;48.698;9.116;2022-07-06T01:18:06;14.90;99.30
770;DHT22;368;48.698;9.116;2022-07-06T01:20:37;15.00;99.70
770;DHT22;368;48.698;9.116;2022-07-06T01:23:03;14.50;99.90
770;DHT22;368;48.698;9.116;2022-07-06T01:25:30;14.80;99.90
770;DHT22;368;48.698;9.116;2022-07-06T01:27:57;14.70;99.90
770;DHT22;368;48.698;9.116;2022-07-06T01:30:24;14.90;99.90
770;DHT22;368;48.698;9.116;2022-07-06T01:32:51;15.00;99.00
770;DHT22;368;48.698;9.116;2022-07-06T01:35:18;14.90;98.40
770;DHT22;368;48.698;9.116;2022-07-06T01:37:47;15.30;98.30
770;DHT22;368;48.698;9.116;2022-07-06T01:40:13;14.80;98.50
770;DHT22;368;48.698;9.116;2022-07-06T01:42:40;15.10;98.90
770;DHT22;368;48.698;9.116;2022-07-06T01:45:08;15.10;98.10
770;DHT22;368;48.698;9.116;2022-07-06T01:47:35;14.80;99.00
770;DHT22;368;48.698;9.116;2022-07-06T01:50:05;14.80;99.60
770;DHT22;368;48.698;9.116;2022-07-06T01:52:32;15.00;99.50
770;DHT22;368;48.698;9.116;2022-07-06T01:55:00;15.00;98.40
770;DHT22;368;48.698;9.116;2022-07-06T01:57:27;14.80;99.10
770;DHT22;368;48.698;9.116;2022-07-06T01:59:54;14.80;99.30
770;DHT22;368;48.698;9.116;2022-07-06T02:02:21;14.60;99.70
770;DHT22;368;48.698;9.116;2022-07-06T02:04:47;14.50;99.60
770;DHT22;368;48.698;9.116;2022-07-06T02:07:14;14.70;99.20
770;DHT22;368;48.698;9.116;2022-07-06T02:09:41;14.60;99.40
770;DHT22;368;48.698;9.116;2022-07-06T02:12:09;14.70;99.40
770;DHT22;368;48.698;9.116;2022-07-06T02:14:36;14.60;98.50
770;DHT22;368;48.698;9.116;2022-07-06T02:17:03;14.80;98.90
770;DHT22;368;48.698;9.116;2022-07-06T02:19:30;14.60;99.00
770;DHT22;368;48.698;9.116;2022-07-06T02:21:57;14.80;99.00
770;DHT22;368;48.698;9.116;2022-07-06T02:24:23;14.80;98.30
770;DHT22;368;48.698;9.116;2022-07-06T02:26:50;14.90;98.30
770;DHT22;368;48.698;9.116;2022-07-06T02:29:18;14.60;98.10
770;DHT22;368;48.698;9.116;2022-07-06T02:31:45;15.10;97.80
770;DHT22;368;48.698;9.116;2022-07-06T02:34:12;14.90;97.80
770;DHT22;368;48.698;9.116;2022-07-06T02:36:38;14.90;97.90
770;DHT22;368;48.698;9.116;2022-07-06T02:39:05;15.20;98.20
770;DHT22;368;48.698;9.116;2022-07-06T02:41:32;15.10;97.20
770;DHT22;368;48.698;9.116;2022-07-06T02:43:59;15.10;97.50
770;DHT22;368;48.698;9.116;2022-07-06T02:46:27;15.10;97.30
770;DHT22;368;48.698;9.116;2022-07-06T02:48:53;14.90;97.60
770;DHT22;368;48.698;9.116;2022-07-06T02:51:20;15.00;97.70
770;DHT22;368;48.698;9.116;2022-07-06T02:53:49;14.90;98.00
770;DHT22;368;48.698;9.116;2022-07-06T02:56:15;15.00;97.60
770;DHT22;368;48.698;9.116;2022-07-06T02:58:42;15.00;97.20
770;DHT22;368;48.698;9.116;2022-07-06T03:01:09;15.00;97.40
770;DHT22;368;48.698;9.116;2022-07-06T03:03:37;15.10;97.30
770;DHT22;368;48.698;9.116;2022-07-06T03:06:04;15.00;97.40
770;DHT22;368;48.698;9.116;2022-07-06T03:08:31;15.00;97.60
770;DHT22;368;48.698;9.116;2022-07-06T03:10:59;15.00;97.70
770;DHT22;368;48.698;9.116;2022-07-06T03:13:27;14.90;98.10
770;DHT22;368;48.698;9.116;2022-07-06T03:15:53;14.90;98.30
770;DHT22;368;48.698;9.116;2022-07-06T03:18:20;14.90;98.20
770;DHT22;368;48.698;9.116;2022-07-06T03:20:48;14.70;98.10
770;DHT22;368;48.698;9.116;2022-07-06T03:23:15;15.00;98.30
770;DHT22;368;48.698;9.116;2022-07-06T03:25:42;14.80;98.20
770;DHT22;368;48.698;9.116;2022-07-06T03:28:09;14.80;98.40
770;DHT22;368;48.698;9.116;2022-07-06T03:30:36;14.60;99.20
770;DHT22;368;48.698;9.116;2022-07-06T03:33:02;14.60;99.90
770;DHT22;368;48.698;9.116;2022-07-06T03:35:30;14.30;99.90
770;DHT22;368;48.698;9.116;2022-07-06T03:37:58;14.30;99.90
770;DHT22;368;48.698;9.116;2022-07-06T03:40:24;14.20;99.90
770;DHT22;368;48.698;9.116;2022-07-06T03:42:51;14.00;99.90
770;DHT22;368;48.698;9.116;2022-07-06T03:45:18;14.00;99.90
770;DHT22;368;48.698;9.116;2022-07-06T03:47:45;14.20;99.90
770;DHT22;368;48.698;9.116;2022-07-06T03:50:11;14.30;99.90
770;DHT22;368;48.698;9.116;2022-07-06T03:52:38;14.40;99.90
770;DHT22;368;48.698;9.116;2022-07-06T03:55:09;14.30;99.90
770;DHT22;368;48.698;9.116;2022-07-06T03:57:36;14.30;99.90
770;DHT22;368;48.698;9.116;2022-07-06T04:00:04;14.20;99.90
770;DHT22;368;48.698;9.116;2022-07-06T04:02:31;14.40;99.90
770;DHT22;368;48.698;9.116;2022-07-06T04:04:58;14.20;99.90
770;DHT22;368;48.698;9.116;2022-07-06T04:07:25;14.40;99.90
770;DHT22;368;48.698;9.116;2022-07-06T04:09:52;14.20;99.90
770;DHT22;368;48.698;9.116;2022-07-06T04:12:20;14.30;99.90
770;DHT22;368;48.698;9.116;2022-07-06T04:14:47;14.50;99.90
770;DHT22;368;48.698;9.116;2022-07-06T04:17:14;14.50;99.90
770;DHT22;368;48.698;9.116;2022-07-06T04:19:58;14.20;99.90
770;DHT22;368;48.698;9.116;2022-07-06T04:22:25;14.60;99.90
770;DHT22;368;48.698;9.116;2022-07-06T04:24:52;14.50;99.90
770;DHT22;368;48.698;9.116;2022-07-06T04:27:20;14.20;99.90
770;DHT22;368;48.698;9.116;2022-07-06T04:29:47;14.40;99.90
770;DHT22;368;48.698;9.116;2022-07-06T04:32:13;14.60;99.90
770;DHT22;368;48.698;9.116;2022-07-06T04:34:40;14.60;99.90
770;DHT22;368;48.698;9.116;2022-07-06T04:37:07;14.70;99.90
770;DHT22;368;48.698;9.116;2022-07-06T04:39:34;14.70;99.90
770;DHT22;368;48.698;9.116;2022-07-06T04:42:00;14.80;99.90
770;DHT22;368;48.698;9.116;2022-07-06T04:44:28;14.70;99.90
770;DHT22;368;48.698;9.116;2022-07-06T04:46:55;15.10;99.90
770;DHT22;368;48.698;9.116;2022-07-06T04:49:22;15.00;99.90
770;DHT22;368;48.698;9.116;2022-07-06T04:51:49;15.10;99.90
770;DHT22;368;48.698;9.116;2022-07-06T04:54:16;15.00;99.90
770;DHT22;368;48.698;9.116;2022-07-06T04:56:43;15.10;99.90
770;DHT22;368;48.698;9.116;2022-07-06T04:59:09;15.30;99.90
770;DHT22;368;48.698;9.116;2022-07-06T05:01:38;15.20;99.90
770;DHT22;368;48.698;9.116;2022-07-06T05:04:06;15.10;99.90
770;DHT22;368;48.698;9.116;2022-07-06T05:06:33;15.00;99.90
770;DHT22;368;48.698;9.116;2022-07-06T05:08:59;15.20;99.90
770;DHT22;368;48.698;9.116;2022-07-06T05:11:26;15.50;99.90
770;DHT22;368;48.698;9.116;2022-07-06T05:13:53;15.10;99.90
770;DHT22;368;48.698;9.116;2022-07-06T05:16:20;15.40;99.90
770;DHT22;368;48.698;9.116;2022-07-06T05:18:48;15.40;99.90
770;DHT22;368;48.698;9.116;2022-07-06T05:21:15;15.60;99.90
770;DHT22;368;48.698;9.116;2022-07-06T05:23:42;15.70;99.80
770;DHT22;368;48.698;9.116;2022-07-06T05:26:09;15.70;99.90
770;DHT22;368;48.698;9.116;2022-07-06T05:28:35;15.50;99.90
770;DHT22;368;48.698;9.116;2022-07-06T05:31:02;15.90;99.70
770;DHT22;368;48.698;9.116;2022-07-06T05:33:29;16.10;99.70
770;DHT22;368;48.698;9.116;2022-07-06T05:35:57;16.50;99.20
770;DHT22;368;48.698;9.116;2022-07-06T05:38:24;16.70;98.40
770;DHT22;368;48.698;9.116;2022-07-06T05:40:51;16.90;98.20
770;DHT22;368;48.698;9.116;2022-07-06T05:43:18;17.10;97.60
770;DHT22;368;48.698;9.116;2022-07-06T05:45:45;16.80;97.90
770;DHT22;368;48.698;9.116;2022-07-06T05:48:12;17.00;97.50
770;DHT22;368;48.698;9.116;2022-07-06T05:50:57;17.00;97.60
770;DHT22;368;48.698;9.116;2022-07-06T05:53:24;17.30;97.10
770;DHT22;368;48.698;9.116;2022-07-06T05:55:51;17.30;96.70
770;DHT22;368;48.698;9.116;2022-07-06T05:58:18;17.50;97.70
770;DHT22;368;48.698;9.116;2022-07-06T06:00:45;17.60;96.10
770;DHT22;368;48.698;9.116;2022-07-06T06:03:12;17.90;95.90
770;DHT22;368;48.698;9.116;2022-07-06T06:05:38;17.70;95.50
770;DHT22;368;48.698;9.116;2022-07-06T06:08:07;18.00;95.90
770;DHT22;368;48.698;9.116;2022-07-06T06:10:34;18.40;95.00
770;DHT22;368;48.698;9.116;2022-07-06T06:13:00;18.10;94.90
770;DHT22;368;48.698;9.116;2022-07-06T06:15:27;18.00;94.90
770;DHT22;368;48.698;9.116;2022-07-06T06:17:54;18.40;94.80
770;DHT22;368;48.698;9.116;2022-07-06T06:20:21;18.50;94.60
770;DHT22;368;48.698;9.116;2022-07-06T06:22:49;18.80;94.20
770;DHT22;368;48.698;9.116;2022-07-06T06:25:19;18.90;93.90
770;DHT22;368;48.698;9.116;2022-07-06T06:27:46;18.90;93.90
770;DHT22;368;48.698;9.116;2022-07-06T06:30:13;18.90;94.00
770;DHT22;368;48.698;9.116;2022-07-06T06:32:40;19.20;93.50
770;DHT22;368;48.698;9.116;2022-07-06T06:35:08;19.40;92.60
770;DHT22;368;48.698;9.116;2022-07-06T06:37:35;19.60;92.50
770;DHT22;368;48.698;9.116;2022-07-06T06:40:02;19.90;92.20
770;DHT22;368;48.698;9.116;2022-07-06T06:42:31;20.30;92.10
770;DHT22;368;48.698;9.116;2022-07-06T06:44:57;21.10;90.60
770;DHT22;368;48.698;9.116;2022-07-06T06:47:24;20.80;91.80
770;DHT22;368;48.698;9.116;2022-07-06T06:49:51;20.70;90.40
770;DHT22;368;48.698;9.116;2022-07-06T06:52:18;21.00;90.20
770;DHT22;368;48.698;9.116;2022-07-06T06:54:45;21.30;90.40
770;DHT22;368;48.698;9.116;2022-07-06T06:57:11;22.60;85.70
770;DHT22;368;48.698;9.116;2022-07-06T06:59:39;22.50;85.60
770;DHT22;368;48.698;9.116;2022-07-06T07:02:06;21.30;86.50
770;DHT22;368;48.698;9.116;2022-07-06T07:04:33;20.50;89.40
770;DHT22;368;48.698;9.116;2022-07-06T07:07:00;21.00;89.40
770;DHT22;368;48.698;9.116;2022-07-06T07:09:27;21.80;87.20
770;DHT22;368;48.698;9.116;2022-07-06T07:11:53;21.60;89.10
770;DHT22;368;48.698;9.116;2022-07-06T07:14:20;21.30;87.60
770;DHT22;368;48.698;9.116;2022-07-06T07:16:48;20.30;90.90
770;DHT22;368;48.698;9.116;2022-07-06T07:19:15;20.70;90.20
770;DHT22;368;48.698;9.116;2022-07-06T07:21:42;21.20;87.90
770;DHT22;368;48.698;9.116;2022-07-06T07:24:09;22.00;85.30
770;DHT22;368;48.698;9.116;2022-07-06T07:26:36;22.30;84.90
770;DHT22;368;48.698;9.116;2022-07-06T07:29:03;21.50;84.90
770;DHT22;368;48.698;9.116;2022-07-06T07:31:30;21.70;88.90
770;DHT22;368;48.698;9.116;2022-07-06T07:33:58;22.10;87.10
770;DHT22;368;48.698;9.116;2022-07-06T07:36:25;21.80;87.90
770;DHT22;368;48.698;9.116;2022-07-06T07:38:52;21.30;88.10
770;DHT22;368;48.698;9.116;2022-07-06T07:41:18;21.30;87.80
770;DHT22;368;48.698;9.116;2022-07-06T07:43:45;22.40;84.40
770;DHT22;368;48.698;9.116;2022-07-06T07:46:12;23.40;85.30
770;DHT22;368;48.698;9.116;2022-07-06T07:48:39;22.80;81.00
770;DHT22;368;48.698;9.116;2022-07-06T07:51:07;23.40;80.80
770;DHT22;368;48.698;9.116;2022-07-06T07:53:34;22.60;82.00
770;DHT22;368;48.698;9.116;2022-07-06T07:56:01;23.10;85.40
770;DHT22;368;48.698;9.116;2022-07-06T07:58:28;24.20;82.70
770;DHT22;368;48.698;9.116;2022-07-06T08:00:55;24.20;77.50
770;DHT22;368;48.698;9.116;2022-07-06T08:03:21;23.70;86.20
770;DHT22;368;48.698;9.116;2022-07-06T08:05:48;24.70;80.20
770;DHT22;368;48.698;9.116;2022-07-06T08:08:17;25.80;74.90
770;DHT22;368;48.698;9.116;2022-07-06T08:10:44;25.50;73.40
770;DHT22;368;48.698;9.116;2022-07-06T08:13:11;24.40;76.80
770;DHT22;368;48.698;9.116;2022-07-06T08:15:40;25.60;75.30
770;DHT22;368;48.698;9.116;2022-07-06T08:18:07;26.40;72.90
770;DHT22;368;48.698;9.116;2022-07-06T08:20:35;26.50;70.80
770;DHT22;368;48.698;9.116;2022-07-06T08:23:02;26.00;70.80
770;DHT22;368;48.698;9.116;2022-07-06T08:25:30;25.60;73.50
770;DHT22;368;48.698;9.116;2022-07-06T08:27:57;25.90;74.10
770;DHT22;368;48.698;9.116;2022-07-06T08:30:24;25.70;71.50
770;DHT22;368;48.698;9.116;2022-07-06T08:32:51;26.40;71.90
770;DHT22;368;48.698;9.116;2022-07-06T08:35:18;26.20;71.80
770;DHT22;368;48.698;9.116;2022-07-06T08:37:44;26.90;71.00
770;DHT22;368;48.698;9.116;2022-07-06T08:40:11;25.80;70.20
770;DHT22;368;48.698;9.116;2022-07-06T08:42:40;25.90;70.00
770;DHT22;368;48.698;9.116;2022-07-06T08:45:08;26.90;69.60
770;DHT22;368;48.698;9.116;2022-07-06T08:47:39;27.80;65.70
770;DHT22;368;48.698;9.116;2022-07-06T08:50:09;26.30;67.90
770;DHT22;368;48.698;9.116;2022-07-06T08:52:36;25.30;69.50
770;DHT22;368;48.698;9.116;2022-07-06T08:55:04;25.40;71.40
770;DHT22;368;48.698;9.116;2022-07-06T08:57:31;25.40;71.70
770;DHT22;368;48.698;9.116;2022-07-06T08:59:59;25.70;69.80
770;DHT22;368;48.698;9.116;2022-07-06T09:02:27;25.90;71.70
770;DHT22;368;48.698;9.116;2022-07-06T09:04:55;27.10;69.50
770;DHT22;368;48.698;9.116;2022-07-06T09:07:24;27.40;67.30
770;DHT22;368;48.698;9.116;2022-07-06T09:09:53;26.10;67.10
770;DHT22;368;48.698;9.116;2022-07-06T09:12:20;27.10;68.80
770;DHT22;368;48.698;9.116;2022-07-06T09:14:47;28.80;62.70
770;DHT22;368;48.698;9.116;2022-07-06T09:17:16;29.30;63.40
770;DHT22;368;48.698;9.116;2022-07-06T09:19:45;28.60;62.20
770;DHT22;368;48.698;9.116;2022-07-06T09:22:24;26.80;66.60
770;DHT22;368;48.698;9.116;2022-07-06T09:24:53;25.70;67.70
770;DHT22;368;48.698;9.116;2022-07-06T09:27:20;26.30;66.70
770;DHT22;368;48.698;9.116;2022-07-06T09:29:48;27.10;66.60
770;DHT22;368;48.698;9.116;2022-07-06T09:32:19;26.80;67.70
770;DHT22;368;48.698;9.116;2022-07-06T09:34:47;26.40;70.00
770;DHT22;368;48.698;9.116;2022-07-06T09:37:14;26.70;67.70
770;DHT22;368;48.698;9.116;2022-07-06T09:39:42;27.30;69.10
770;DHT22;368;48.698;9.116;2022-07-06T09:42:10;27.50;67.50
770;DHT22;368;48.698;9.116;2022-07-06T09:44:38;26.70;66.50
770;DHT22;368;48.698;9.116;2022-07-06T09:47:08;27.00;67.60
770;DHT22;368;48.698;9.116;2022-07-06T09:49:37;27.00;70.80
770;DHT22;368;48.698;9.116;2022-07-06T09:52:06;30.10;62.50
770;DHT22;368;48.698;9.116;2022-07-06T09:54:33;29.40;61.60
770;DHT22;368;48.698;9.116;2022-07-06T09:57:01;28.10;68.30
770;DHT22;368;48.698;9.116;2022-07-06T09:59:29;26.10;66.60
770;DHT22;368;48.698;9.116;2022-07-06T10:01:58;26.00;70.00
770;DHT22;368;48.698;9.116;2022-07-06T10:04:26;27.40;67.60
770;DHT22;368;48.698;9.116;2022-07-06T10:06:56;28.50;65.40
770;DHT22;368;48.698;9.116;2022-07-06T10:09:24;29.20;64.10
770;DHT22;368;48.698;9.116;2022-07-06T10:11:53;29.30;67.70
770;DHT22;368;48.698;9.116;2022-07-06T10:14:21;28.10;63.00
770;DHT22;368;48.698;9.116;2022-07-06T10:16:49;27.20;65.20
770;DHT22;368;48.698;9.116;2022-07-06T10:19:18;27.70;66.50
770;DHT22;368;48.698;9.116;2022-07-06T10:21:45;28.70;64.40
770;DHT22;368;48.698;9.116;2022-07-06T10:24:15;28.20;66.50
770;DHT22;368;48.698;9.116;2022-07-06T10:26:42;29.70;61.80
770;DHT22;368;48.698;9.116;2022-07-06T10:29:09;28.60;61.80
770;DHT22;368;48.698;9.116;2022-07-06T10:31:38;27.70;64.20
770;DHT22;368;48.698;9.116;2022-07-06T10:34:09;26.80;64.70
770;DHT22;368;48.698;9.116;2022-07-06T10:36:38;26.40;66.30
770;DHT22;368;48.698;9.116;2022-07-06T10:39:05;26.00;66.80
770;DHT22;368;48.698;9.116;2022-07-06T10:41:53;27.00;65.60
770;DHT22;368;48.698;9.116;2022-07-06T10:44:22;27.20;66.90
770;DHT22;368;48.698;9.116;2022-07-06T10:46:53;27.70;68.30
770;DHT22;368;48.698;9.116;2022-07-06T10:49:21;26.80;65.30
770;DHT22;368;48.698;9.116;2022-07-06T10:51:49;24.70;70.60
770;DHT22;368;48.698;9.116;2022-07-06T10:54:17;24.20;73.20
770;DHT22;368;48.698;9.116;2022-07-06T10:56:45;24.70;73.30
770;DHT22;368;48.698;9.116;2022-07-06T10:59:15;27.00;67.00
770;DHT22;368;48.698;9.116;2022-07-06T11:02:12;27.50;66.50
770;DHT22;368;48.698;9.116;2022-07-06T11:04:39;28.00;66.60
770;DHT22;368;48.698;9.116;2022-07-06T11:07:10;26.60;66.90
770;DHT22;368;48.698;9.116;2022-07-06T11:09:37;26.30;70.00
770;DHT22;368;48.698;9.116;2022-07-06T11:12:15;28.30;65.80
770;DHT22;368;48.698;9.116;2022-07-06T11:14:46;27.50;63.10
770;DHT22;368;48.698;9.116;2022-07-06T11:17:13;26.00;67.90
770;DHT22;368;48.698;9.116;2022-07-06T11:19:49;25.80;70.20
770;DHT22;368;48.698;9.116;2022-07-06T11:22:16;27.00;68.80
770;DHT22;368;48.698;9.116;2022-07-06T11:24:44;28.00;66.60
770;DHT22;368;48.698;9.116;2022-07-06T11:27:11;28.70;67.90
770;DHT22;368;48.698;9.116;2022-07-06T11:29:38;28.60;62.60
770;DHT22;368;48.698;9.116;2022-07-06T11:32:07;27.00;65.70
770;DHT22;368;48.698;9.116;2022-07-06T11:34:37;26.50;69.10
770;DHT22;368;48.698;9.116;2022-07-06T11:37:06;28.40;68.10
770;DHT22;368;48.698;9.116;2022-07-06T11:39:35;29.30;62.60
770;DHT22;368;48.698;9.116;2022-07-06T11:42:05;28.90;62.50
770;DHT22;368;48.698;9.116;2022-07-06T11:44:33;28.60;63.10
770;DHT22;368;48.698;9.116;2022-07-06T11:47:00;27.10;65.90
770;DHT22;368;48.698;9.116;2022-07-06T11:49:30;27.70;67.60
770;DHT22;368;48.698;9.116;2022-07-06T11:51:58;27.80;65.90
770;DHT22;368;48.698;9.116;2022-07-06T11:54:25;27.00;66.40
770;DHT22;368;48.698;9.116;2022-07-06T11:56:54;27.10;67.50
770;DHT22;368;48.698;9.116;2022-07-06T11:59:22;27.80;64.00
770;DHT22;368;48.698;9.116;2022-07-06T12:01:50;28.30;64.50
770;DHT22;368;48.698;9.116;2022-07-06T12:04:24;27.30;65.60
770;DHT22;368;48.698;9.116;2022-07-06T12:06:52;26.60;66.20
770;DHT22;368;48.698;9.116;2022-07-06T12:09:19;26.40;67.00
770;DHT22;368;48.698;9.116;2022-07-06T12:11:46;27.10;67.40
770;DHT22;368;48.698;9.116;2022-07-06T12:14:15;26.30;67.50
770;DHT22;368;48.698;9.116;2022-07-06T12:16:42;25.00;70.60
770;DHT22;368;48.698;9.116;2022-07-06T12:19:09;24.00;74.40
770;DHT22;368;48.698;9.116;2022-07-06T12:21:43;24.00;74.60
770;DHT22;368;48.698;9.116;2022-07-06T12:24:17;24.70;72.90
770;DHT22;368;48.698;9.116;2022-07-06T12:26:44;24.60;74.70
770;DHT22;368;48.698;9.116;2022-07-06T12:29:12;24.40;71.70
770;DHT22;368;48.698;9.116;2022-07-06T12:31:41;24.10;73.00
770;DHT22;368;48.698;9.116;2022-07-06T12:34:13;24.00;75.10
770;DHT22;368;48.698;9.116;2022-07-06T12:36:44;25.40;71.90
770;DHT22;368;48.698;9.116;2022-07-06T12:39:13;25.70;71.90
770;DHT22;368;48.698;9.116;2022-07-06T12:41:45;26.40;69.50
770;DHT22;368;48.698;9.116;2022-07-06T12:44:13;26.80;69.20
770;DHT22;368;48.698;9.116;2022-07-06T12:46:41;26.20;70.10
770;DHT22;368;48.698;9.116;2022-07-06T12:49:16;25.90;68.40
770;DHT22;368;48.698;9.116;2022-07-06T12:51:54;25.10;72.10
770;DHT22;368;48.698;9.116;2022-07-06T12:54:24;24.20;72.60
770;DHT22;368;48.698;9.116;2022-07-06T12:57:05;24.70;71.60
770;DHT22;368;48.698;9.116;2022-07-06T12:59:35;24.90;71.30
770;DHT22;368;48.698;9.116;2022-07-06T13:02:03;24.60;73.60
770;DHT22;368;48.698;9.116;2022-07-06T13:04:31;24.50;73.50
770;DHT22;368;48.698;9.116;2022-07-06T13:06:59;24.00;74.60
770;DHT22;368;48.698;9.116;2022-07-06T13:09:28;24.10;73.40
770;DHT22;368;48.698;9.116;2022-07-06T13:11:55;23.00;75.30
770;DHT22;368;48.698;9.116;2022-07-06T13:14:22;23.40;76.00
770;DHT22;368;48.698;9.116;2022-07-06T13:16:49;24.50;74.70
770;DHT22;368;48.698;9.116;2022-07-06T13:19:16;25.30;71.50
770;DHT22;368;48.698;9.116;2022-07-06T13:21:43;25.20;70.20
770;DHT22;368;48.698;9.116;2022-07-06T13:24:11;23.70;75.10
770;DHT22;368;48.698;9.116;2022-07-06T13:26:39;23.20;74.70
770;DHT22;368;48.698;9.116;2022-07-06T13:29:06;23.10;75.10
770;DHT22;368;48.698;9.116;2022-07-06T13:31:36;23.40;74.50
770;DHT22;368;48.698;9.116;2022-07-06T13:34:04;22.40;75.90
770;DHT22;368;48.698;9.116;2022-07-06T13:36:31;22.10;77.40
770;DHT22;368;48.698;9.116;2022-07-06T13:38:58;22.40;76.70
770;DHT22;368;48.698;9.116;2022-07-06T13:41:24;23.70;74.30
770;DHT22;368;48.698;9.116;2022-07-06T13:43:52;25.60;71.80
770;DHT22;368;48.698;9.116;2022-07-06T13:46:20;25.70;69.40
770;DHT22;368;48.698;9.116;2022-07-06T13:48:46;25.30;69.70
770;DHT22;368;48.698;9.116;2022-07-06T13:51:13;24.60;72.00
770;DHT22;368;48.698;9.116;2022-07-06T13:53:40;25.10;73.20
770;DHT22;368;48.698;9.116;2022-07-06T13:56:07;26.10;68.70
770;DHT22;368;48.698;9.116;2022-07-06T13:58:34;25.00;69.10
770;DHT22;368;48.698;9.116;2022-07-06T14:01:03;25.00;70.60
770;DHT22;368;48.698;9.116;2022-07-06T14:03:30;26.30;68.30
770;DHT22;368;48.698;9.116;2022-07-06T14:05:58;26.20;66.70
770;DHT22;368;48.698;9.116;2022-07-06T14:08:25;25.50;67.80
770;DHT22;368;48.698;9.116;2022-07-06T14:10:53;24.80;71.20
770;DHT22;368;48.698;9.116;2022-07-06T14:13:20;25.60;68.90
770;DHT22;368;48.698;9.116;2022-07-06T14:15:47;24.90;71.90
770;DHT22;368;48.698;9.116;2022-07-06T14:18:16;25.30;71.50
770;DHT22;368;48.698;9.116;2022-07-06T14:20:44;25.20;70.40
770;DHT22;368;48.698;9.116;2022-07-06T14:23:11;25.60;67.60
770;DHT22;368;48.698;9.116;2022-07-06T14:25:39;26.10;68.80
770;DHT22;368;48.698;9.116;2022-07-06T14:28:06;25.50;68.90
770;DHT22;368;48.698;9.116;2022-07-06T14:30:34;26.00;67.40
770;DHT22;368;48.698;9.116;2022-07-06T14:33:02;25.70;67.80
770;DHT22;368;48.698;9.116;2022-07-06T14:35:34;25.60;67.60
770;DHT22;368;48.698;9.116;2022-07-06T14:38:01;25.30;69.00
770;DHT22;368;48.698;9.116;2022-07-06T14:40:28;24.90;69.30
770;DHT22;368;48.698;9.116;2022-07-06T14:42:55;24.80;72.30
770;DHT22;368;48.698;9.116;2022-07-06T14:45:22;25.80;67.50
770;DHT22;368;48.698;9.116;2022-07-06T14:47:49;24.30;67.60
770;DHT22;368;48.698;9.116;2022-07-06T14:50:16;24.70;70.10
770;DHT22;368;48.698;9.116;2022-07-06T14:52:44;25.00;68.30
770;DHT22;368;48.698;9.116;2022-07-06T14:55:11;25.50;66.70
770;DHT22;368;48.698;9.116;2022-07-06T14:57:38;25.70;68.80
770;DHT22;368;48.698;9.116;2022-07-06T15:00:06;25.60;69.40
770;DHT22;368;48.698;9.116;2022-07-06T15:02:33;25.10;68.80
770;DHT22;368;48.698;9.116;2022-07-06T15:05:00;25.20;67.50
770;DHT22;368;48.698;9.116;2022-07-06T15:07:27;25.00;68.50
770;DHT22;368;48.698;9.116;2022-07-06T15:09:55;24.90;68.50
770;DHT22;368;48.698;9.116;2022-07-06T15:12:22;25.20;70.30
770;DHT22;368;48.698;9.116;2022-07-06T15:14:50;24.70;69.70
770;DHT22;368;48.698;9.116;2022-07-06T15:17:17;24.50;70.00
770;DHT22;368;48.698;9.116;2022-07-06T15:19:44;24.80;68.90
770;DHT22;368;48.698;9.116;2022-07-06T15:22:11;24.70;67.50
770;DHT22;368;48.698;9.116;2022-07-06T15:24:38;23.50;70.30
770;DHT22;368;48.698;9.116;2022-07-06T15:27:07;24.00;68.30
770;DHT22;368;48.698;9.116;2022-07-06T15:29:34;23.70;68.80
770;DHT22;368;48.698;9.116;2022-07-06T15:32:01;23.80;69.50
770;DHT22;368;48.698;9.116;2022-07-06T15:34:28;24.10;68.00
770;DHT22;368;48.698;9.116;2022-07-06T15:36:54;24.20;69.50
770;DHT22;368;48.698;9.116;2022-07-06T15:39:22;23.10;71.00
770;DHT22;368;48.698;9.116;2022-07-06T15:41:49;23.60;70.90
770;DHT22;368;48.698;9.116;2022-07-06T15:44:17;23.50;70.90
770;DHT22;368;48.698;9.116;2022-07-06T15:46:43;23.40;69.10
770;DHT22;368;48.698;9.116;2022-07-06T15:49:12;23.50;68.80
770;DHT22;368;48.698;9.116;2022-07-06T15:51:39;22.80;69.50
770;DHT22;368;48.698;9.116;2022-07-06T15:54:06;22.70;70.40
770;DHT22;368;48.698;9.116;2022-07-06T15:56:32;23.30;70.50
770;DHT22;368;48.698;9.116;2022-07-06T15:58:59;23.40;70.10
770;DHT22;368;48.698;9.116;2022-07-06T16:01:27;23.30;68.00
770;DHT22;368;48.698;9.116;2022-07-06T16:03:54;23.40;67.90
770;DHT22;368;48.698;9.116;2022-07-06T16:06:21;22.80;70.50
770;DHT22;368;48.698;9.116;2022-07-06T16:08:48;23.20;69.20
770;DHT22;368;48.698;9.116;2022-07-06T16:11:15;23.70;69.50
770;DHT22;368;48.698;9.116;2022-07-06T16:13:43;23.70;67.40
770;DHT22;368;48.698;9.116;2022-07-06T16:16:11;23.50;67.40
770;DHT22;368;48.698;9.116;2022-07-06T16:18:39;23.30;69.20
770;DHT22;368;48.698;9.116;2022-07-06T16:21:06;23.20;68.10
770;DHT22;368;48.698;9.116;2022-07-06T16:23:33;23.10;69.40
770;DHT22;368;48.698;9.116;2022-07-06T16:26:00;22.60;66.50
770;DHT22;368;48.698;9.116;2022-07-06T16:28:27;22.60;67.90
770;DHT22;368;48.698;9.116;2022-07-06T16:30:54;22.90;69.00
770;DHT22;368;48.698;9.116;2022-07-06T16:33:21;22.10;68.50
770;DHT22;368;48.698;9.116;2022-07-06T16:35:49;22.20;69.80
770;DHT22;368;48.698;9.116;2022-07-06T16:38:17;22.30;68.90